sensor_id;sensor_type;location;lat;lon;timestamp;temperature;humidity
4433;DHT22;2229;48.708;9.706;2022-12-07T00:01:08;4.70;99.90
4433;DHT22;2229;48.708;9.706;2022-12-07T00:03:38;4.70;99.90
4433;DHT22;2229;48.708;9.706;2022-12-07T00:06:07;4.70;99.90
4433;DHT22;2229;48.708;9.706;2022-12-07T00:08:35;4.70;99.90
4433;DHT22;2229;48.708;9.706;2022-12-07T00:11:03;4.70;99.90
4433;DHT22;2229;48.708;9.706;2022-12-07T00:13:31;4.70;99.90
4433;DHT22;2229;48.708;9.706;2022-12-07T00:16:00;4.70;99.90
4433;DHT22;2229;48.708;9.706;2022-12-07T00:18:29;4.70;99.90
4433;DHT22;2229;48.708;9.706;2022-12-07T00:21:00;4.70;99.90
4433;DHT22;2229;48.708;9.706;2022-12-07T00:23:28;4.70;99.90
4433;DHT22;2229;48.708;9.706;2022-12-07T00:25:55;4.70;99.90
4433;DHT22;2229;48.708;9.706;2022-12-07T00:28:23;4.70;99.90
4433;DHT22;2229;48.708;9.706;2022-12-07T00:30:50;4.70;99.90
4433;DHT22;2229;48.708;9.706;2022-12-07T00:33:37;4.70;99.90
4433;DHT22;2229;48.708;9.706;2022-12-07T00:36:09;4.70;99.90
4433;DHT22;2229;48.708;9.706;2022-12-07T00:38:37;4.70;99.90
4433;DHT22;2229;48.708;9.706;2022-12-07T00:41:07;4.70;99.90
4433;DHT22;2229;48.708;9.706;2022-12-07T00:43:48;4.70;99.90
4433;DHT22;2229;48.708;9.706;2022-12-07T00:46:16;4.80;99.90
4433;DHT22;2229;48.708;9.706;2022-12-07T00:48:43;4.70;99.90
4433;DHT22;2229;48.708;9.706;2022-12-07T00:51:13;4.70;99.90
4433;DHT22;2229;48.708;9.706;2022-12-07T00:53:47;5.10;99.90
4433;DHT22;2229;48.708;9.706;2022-12-07T00:56:16;4.70;99.90
4433;DHT22;2229;48.708;9.706;2022-12-07T00:58:44;4.70;99.90
4433;DHT22;2229;48.708;9.706;2022-12-07T01:01:11;4.70;99.90
4433;DHT22;2229;48.708;9.706;2022-12-07T01:03:38;4.70;99.90
4433;DHT22;2229;48.708;9.706;2022-12-07T01:06:06;4.70;99.90
4433;DHT22;2229;48.708;9.706;2022-12-07T01:08:34;4.70;99.90
4433;DHT22;2229;48.708;9.706;2022-12-07T01:11:04;4.60;99.90
4433;DHT22;2229;48.708;9.706;2022-12-07T01:13:33;4.60;99.90
4433;DHT22;2229;48.708;9.706;2022-12-07T01:16:02;4.60;99.90
4433;DHT22;2229;48.708;9.706;2022-12-07T01:18:32;4.70;99.90
4433;DHT22;2229;48.708;9.706;2022-12-07T01:21:00;4.60;99.90
4433;DHT22;2229;48.708;9.706;2022-12-07T01:23:28;4.70;99.90
4433;DHT22;2229;48.708;9.706;2022-12-07T01:25:59;4.70;99.90
4433;DHT22;2229;48.708;9.706;2022-12-07T01:28:27;4.70;99.90
4433;DHT22;2229;48.708;9.706;2022-12-07T01:30:57;4.70;99.90
4433;DHT22;2229;48.708;9.706;2022-12-07T01:33:24;4.70;99.90
4433;DHT22;2229;48.708;9.706;2022-12-07T01:35:53;4.70;99.90
4433;DHT22;2229;48.708;9.706;2022-12-07T01:38:20;4.60;99.90
4433;DHT22;2229;48.708;9.706;2022-12-07T01:40:54;4.60;99.90
4433;DHT22;2229;48.708;9.706;2022-12-07T01:43:24;4.60;99.90
4433;DHT22;2229;48.708;9.706;2022-12-07T01:45:52;4.60;99.90
4433;DHT22;2229;48.708;9.706;2022-12-07T01:48:22;4.60;99.90
4433;DHT22;2229;48.708;9.706;2022-12-07T01:50:53;4.60;99.90
4433;DHT22;2229;48.708;9.706;2022-12-07T01:53:24;4.60;99.90
4433;DHT22;2229;48.708;9.706;2022-12-07T01:55:54;4.60;99.90
4433;DHT22;2229;48.708;9.706;2022-12-07T01:58:25;4.60;99.90
4433;DHT22;2229;48.708;9.706;2022-12-07T02:00:52;4.60;99.90
4433;DHT22;2229;48.708;9.706;2022-12-07T02:03:25;4.70;99.90
4433;DHT22;2229;48.708;9.706;2022-12-07T02:05:54;4.70;99.90
4433;DHT22;2229;48.708;9.706;2022-12-07T02:08:22;4.70;99.90
4433;DHT22;2229;48.708;9.706;2022-12-07T02:10:49;4.70;99.90
4433;DHT22;2229;48.708;9.706;2022-12-07T02:13:18;4.60;99.90
4433;DHT22;2229;48.708;9.706;2022-12-07T02:16:10;4.70;99.90
4433;DHT22;2229;48.708;9.706;2022-12-07T02:18:50;4.70;99.90
4433;DHT22;2229;48.708;9.706;2022-12-07T02:21:25;4.70;99.90
4433;DHT22;2229;48.708;9.706;2022-12-07T02:30:01;4.70;99.90
4433;DHT22;2229;48.708;9.706;2022-12-07T02:32:40;4.60;99.90
4433;DHT22;2229;48.708;9.706;2022-12-07T02:35:12;4.60;99.90
4433;DHT22;2229;48.708;9.706;2022-12-07T02:37:43;4.60;99.90
4433;DHT22;2229;48.708;9.706;2022-12-07T02:40:18;4.60;99.90
4433;DHT22;2229;48.708;9.706;2022-12-07T02:42:49;4.60;99.90
4433;DHT22;2229;48.708;9.706;2022-12-07T02:45:22;4.60;99.90
4433;DHT22;2229;48.708;9.706;2022-12-07T02:47:56;4.60;99.90
4433;DHT22;2229;48.708;9.706;2022-12-07T02:50:26;4.60;99.90
4433;DHT22;2229;48.708;9.706;2022-12-07T02:52:54;4.50;99.90
4433;DHT22;2229;48.708;9.706;2022-12-07T02:55:26;4.50;99.90
4433;DHT22;2229;48.708;9.706;2022-12-07T02:58:10;4.50;99.90
4433;DHT22;2229;48.708;9.706;2022-12-07T03:00:48;4.50;99.90
4433;DHT22;2229;48.708;9.706;2022-12-07T03:03:18;4.50;99.90
4433;DHT22;2229;48.708;9.706;2022-12-07T03:06:10;4.50;99.90
4433;DHT22;2229;48.708;9.706;2022-12-07T03:08:50;4.50;99.90
4433;DHT22;2229;48.708;9.706;2022-12-07T03:11:25;4.40;99.90
4433;DHT22;2229;48.708;9.706;2022-12-07T03:13:58;4.40;99.90
4433;DHT22;2229;48.708;9.706;2022-12-07T03:16:31;4.40;99.90
4433;DHT22;2229;48.708;9.706;2022-12-07T03:19:04;4.30;99.90
4433;DHT22;2229;48.708;9.706;2022-12-07T03:21:37;4.30;99.90
4433;DHT22;2229;48.708;9.706;2022-12-07T03:24:08;4.30;99.90
4433;DHT22;2229;48.708;9.706;2022-12-07T03:26:38;4.30;99.90
4433;DHT22;2229;48.708;9.706;2022-12-07T03:29:12;4.30;99.90
4433;DHT22;2229;48.708;9.706;2022-12-07T03:31:44;4.30;99.90
4433;DHT22;2229;48.708;9.706;2022-12-07T03:34:14;4.30;99.90
4433;DHT22;2229;48.708;9.706;2022-12-07T03:36:47;4.20;99.90
4433;DHT22;2229;48.708;9.706;2022-12-07T03:39:22;4.30;99.90
4433;DHT22;2229;48.708;9.706;2022-12-07T03:41:52;4.20;99.90
4433;DHT22;2229;48.708;9.706;2022-12-07T03:44:20;4.20;99.90
4433;DHT22;2229;48.708;9.706;2022-12-07T03:46:55;4.20;99.90
4433;DHT22;2229;48.708;9.706;2022-12-07T03:49:30;4.20;99.90
4433;DHT22;2229;48.708;9.706;2022-12-07T03:52:05;4.20;99.90
4433;DHT22;2229;48.708;9.706;2022-12-07T03:54:39;4.20;99.90
4433;DHT22;2229;48.708;9.706;2022-12-07T03:57:09;4.20;99.90
4433;DHT22;2229;48.708;9.706;2022-12-07T03:59:38;4.20;99.90
4433;DHT22;2229;48.708;9.706;2022-12-07T04:02:08;4.10;99.90
4433;DHT22;2229;48.708;9.706;2022-12-07T04:04:37;4.10;99.90
4433;DHT22;2229;48.708;9.706;2022-12-07T04:07:05;4.10;99.90
4433;DHT22;2229;48.708;9.706;2022-12-07T04:09:32;4.10;99.90
4433;DHT22;2229;48.708;9.706;2022-12-07T04:11:59;4.10;99.90
4433;DHT22;2229;48.708;9.706;2022-12-07T04:14:27;4.10;99.90
4433;DHT22;2229;48.708;9.706;2022-12-07T04:16:55;4.10;99.90
4433;DHT22;2229;48.708;9.706;2022-12-07T04:19:27;4.10;99.90
4433;DHT22;2229;48.708;9.706;2022-12-07T04:22:01;4.10;99.90
4433;DHT22;2229;48.708;9.706;2022-12-07T04:24:28;4.10;99.90
4433;DHT22;2229;48.708;9.706;2022-12-07T04:26:56;4.10;99.90
4433;DHT22;2229;48.708;9.706;2022-12-07T04:29:23;4.10;99.90
4433;DHT22;2229;48.708;9.706;2022-12-07T04:31:51;4.10;99.90
4433;DHT22;2229;48.708;9.706;2022-12-07T04:34:19;4.10;99.90
4433;DHT22;2229;48.708;9.706;2022-12-07T04:36:47;4.00;99.90
4433;DHT22;2229;48.708;9.706;2022-12-07T04:39:19;4.00;99.90
4433;DHT22;2229;48.708;9.706;2022-12-07T04:41:46;4.00;99.90
4433;DHT22;2229;48.708;9.706;2022-12-07T04:44:14;4.00;99.90
4433;DHT22;2229;48.708;9.706;2022-12-07T04:46:42;3.90;99.90
4433;DHT22;2229;48.708;9.706;2022-12-07T04:49:09;3.90;99.90
4433;DHT22;2229;48.708;9.706;2022-12-07T04:51:37;3.90;99.90
4433;DHT22;2229;48.708;9.706;2022-12-07T04:54:05;3.90;99.90
4433;DHT22;2229;48.708;9.706;2022-12-07T04:56:33;3.90;99.90
4433;DHT22;2229;48.708;9.706;2022-12-07T04:59:02;3.90;99.90
4433;DHT22;2229;48.708;9.706;2022-12-07T05:01:29;3.90;99.90
4433;DHT22;2229;48.708;9.706;2022-12-07T05:03:57;3.80;99.90
4433;DHT22;2229;48.708;9.706;2022-12-07T05:06:24;3.80;99.90
4433;DHT22;2229;48.708;9.706;2022-12-07T05:08:51;3.80;99.90
4433;DHT22;2229;48.708;9.706;2022-12-07T05:11:20;3.80;99.90
4433;DHT22;2229;48.708;9.706;2022-12-07T05:14:09;3.80;99.90
4433;DHT22;2229;48.708;9.706;2022-12-07T05:16:36;3.80;99.90
4433;DHT22;2229;48.708;9.706;2022-12-07T05:19:04;3.80;99.90
4433;DHT22;2229;48.708;9.706;2022-12-07T05:21:31;3.80;99.90
4433;DHT22;2229;48.708;9.706;2022-12-07T05:23:58;3.80;99.90
4433;DHT22;2229;48.708;9.706;2022-12-07T05:26:27;3.90;99.90
4433;DHT22;2229;48.708;9.706;2022-12-07T05:28:55;3.80;99.90
4433;DHT22;2229;48.708;9.706;2022-12-07T05:31:23;3.80;99.90
4433;DHT22;2229;48.708;9.706;2022-12-07T05:33:51;3.80;99.90
4433;DHT22;2229;48.708;9.706;2022-12-07T05:36:18;3.80;99.90
4433;DHT22;2229;48.708;9.706;2022-12-07T05:38:46;3.80;99.90
4433;DHT22;2229;48.708;9.706;2022-12-07T05:41:15;3.80;99.90
4433;DHT22;2229;48.708;9.706;2022-12-07T05:43:57;3.90;99.90
4433;DHT22;2229;48.708;9.706;2022-12-07T05:46:24;3.90;99.90
4433;DHT22;2229;48.708;9.706;2022-12-07T05:48:52;3.90;99.90
4433;DHT22;2229;48.708;9.706;2022-12-07T05:51:20;3.90;99.90
4433;DHT22;2229;48.708;9.706;2022-12-07T05:53:47;3.90;99.90
4433;DHT22;2229;48.708;9.706;2022-12-07T05:56:15;4.00;99.90
4433;DHT22;2229;48.708;9.706;2022-12-07T05:58:42;4.00;99.90
4433;DHT22;2229;48.708;9.706;2022-12-07T06:01:33;4.00;99.90
4433;DHT22;2229;48.708;9.706;2022-12-07T06:04:01;4.00;99.90
4433;DHT22;2229;48.708;9.706;2022-12-07T06:06:28;4.00;99.90
4433;DHT22;2229;48.708;9.706;2022-12-07T06:08:55;4.00;99.90
4433;DHT22;2229;48.708;9.706;2022-12-07T06:11:23;4.00;99.90
4433;DHT22;2229;48.708;9.706;2022-12-07T06:14:08;4.00;99.90
4433;DHT22;2229;48.708;9.706;2022-12-07T06:16:37;4.00;99.90
4433;DHT22;2229;48.708;9.706;2022-12-07T06:19:05;4.00;99.90
4433;DHT22;2229;48.708;9.706;2022-12-07T06:21:48;3.90;99.90
4433;DHT22;2229;48.708;9.706;2022-12-07T06:24:16;3.90;99.90
4433;DHT22;2229;48.708;9.706;2022-12-07T06:26:46;3.90;99.90
4433;DHT22;2229;48.708;9.706;2022-12-07T06:29:15;3.80;99.90
4433;DHT22;2229;48.708;9.706;2022-12-07T06:31:44;3.80;99.90
4433;DHT22;2229;48.708;9.706;2022-12-07T06:34:13;3.70;99.90
4433;DHT22;2229;48.708;9.706;2022-12-07T06:36:41;3.70;99.90
4433;DHT22;2229;48.708;9.706;2022-12-07T06:39:09;3.70;99.90
4433;DHT22;2229;48.708;9.706;2022-12-07T06:41:36;3.60;99.90
4433;DHT22;2229;48.708;9.706;2022-12-07T06:44:04;3.70;99.90
4433;DHT22;2229;48.708;9.706;2022-12-07T06:46:32;3.70;99.90
4433;DHT22;2229;48.708;9.706;2022-12-07T06:49:02;3.70;99.90
4433;DHT22;2229;48.708;9.706;2022-12-07T06:51:30;3.70;99.90
4433;DHT22;2229;48.708;9.706;2022-12-07T06:53:57;3.70;99.90
4433;DHT22;2229;48.708;9.706;2022-12-07T06:56:24;3.70;99.90
4433;DHT22;2229;48.708;9.706;2022-12-07T06:58:57;3.70;99.90
4433;DHT22;2229;48.708;9.706;2022-12-07T07:01:24;3.70;99.90
4433;DHT22;2229;48.708;9.706;2022-12-07T07:03:52;3.70;99.90
4433;DHT22;2229;48.708;9.706;2022-12-07T07:06:20;3.70;99.90
4433;DHT22;2229;48.708;9.706;2022-12-07T07:08:50;3.70;99.90
4433;DHT22;2229;48.708;9.706;2022-12-07T07:11:30;3.70;99.90
4433;DHT22;2229;48.708;9.706;2022-12-07T07:13:57;3.70;99.90
4433;DHT22;2229;48.708;9.706;2022-12-07T07:16:28;3.70;99.90
4433;DHT22;2229;48.708;9.706;2022-12-07T07:18:56;3.80;99.90
4433;DHT22;2229;48.708;9.706;2022-12-07T07:21:25;3.80;99.90
4433;DHT22;2229;48.708;9.706;2022-12-07T07:23:52;3.80;99.90
4433;DHT22;2229;48.708;9.706;2022-12-07T07:26:19;3.80;99.90
4433;DHT22;2229;48.708;9.706;2022-12-07T07:28:46;3.80;99.90
4433;DHT22;2229;48.708;9.706;2022-12-07T07:31:14;3.80;99.90
4433;DHT22;2229;48.708;9.706;2022-12-07T07:33:41;3.90;99.90
4433;DHT22;2229;48.708;9.706;2022-12-07T07:36:12;3.90;99.90
4433;DHT22;2229;48.708;9.706;2022-12-07T07:38:41;3.90;99.90
4433;DHT22;2229;48.708;9.706;2022-12-07T07:41:08;3.90;99.90
4433;DHT22;2229;48.708;9.706;2022-12-07T07:43:35;3.90;99.90
4433;DHT22;2229;48.708;9.706;2022-12-07T07:46:03;3.90;99.90
4433;DHT22;2229;48.708;9.706;2022-12-07T07:48:30;3.90;99.90
4433;DHT22;2229;48.708;9.706;2022-12-07T07:50:57;3.90;99.90
4433;DHT22;2229;48.708;9.706;2022-12-07T07:53:24;3.90;99.90
4433;DHT22;2229;48.708;9.706;2022-12-07T07:55:53;3.90;99.90
4433;DHT22;2229;48.708;9.706;2022-12-07T07:58:21;3.90;99.90
4433;DHT22;2229;48.708;9.706;2022-12-07T08:00:48;4.00;99.90
4433;DHT22;2229;48.708;9.706;2022-12-07T08:03:15;4.00;99.90
4433;DHT22;2229;48.708;9.706;2022-12-07T08:05:42;4.00;99.90
4433;DHT22;2229;48.708;9.706;2022-12-07T08:08:10;4.00;99.90
4433;DHT22;2229;48.708;9.706;2022-12-07T08:10:37;4.00;99.90
4433;DHT22;2229;48.708;9.706;2022-12-07T08:13:05;4.10;99.90
4433;DHT22;2229;48.708;9.706;2022-12-07T08:15:40;4.10;99.90
4433;DHT22;2229;48.708;9.706;2022-12-07T08:18:08;4.10;99.90
4433;DHT22;2229;48.708;9.706;2022-12-07T08:20:36;4.10;99.90
4433;DHT22;2229;48.708;9.706;2022-12-07T08:23:05;5.10;99.90
4433;DHT22;2229;48.708;9.706;2022-12-07T08:25:33;4.10;99.90
4433;DHT22;2229;48.708;9.706;2022-12-07T08:28:06;4.20;99.90
4433;DHT22;2229;48.708;9.706;2022-12-07T08:30:33;4.20;99.90
4433;DHT22;2229;48.708;9.706;2022-12-07T08:33:06;4.20;99.90
4433;DHT22;2229;48.708;9.706;2022-12-07T08:35:34;4.20;99.90
4433;DHT22;2229;48.708;9.706;2022-12-07T08:38:02;4.30;99.90
4433;DHT22;2229;48.708;9.706;2022-12-07T08:40:30;4.30;99.90
4433;DHT22;2229;48.708;9.706;2022-12-07T08:42:59;4.30;99.90
4433;DHT22;2229;48.708;9.706;2022-12-07T08:45:28;4.30;99.90
4433;DHT22;2229;48.708;9.706;2022-12-07T08:48:02;4.30;99.90
4433;DHT22;2229;48.708;9.706;2022-12-07T08:50:33;4.40;99.90
4433;DHT22;2229;48.708;9.706;2022-12-07T08:53:01;4.40;99.90
4433;DHT22;2229;48.708;9.706;2022-12-07T08:55:31;4.40;99.90
4433;DHT22;2229;48.708;9.706;2022-12-07T08:57:59;4.50;99.90
4433;DHT22;2229;48.708;9.706;2022-12-07T09:00:28;4.50;99.90
4433;DHT22;2229;48.708;9.706;2022-12-07T09:02:55;4.50;99.90
4433;DHT22;2229;48.708;9.706;2022-12-07T09:05:22;4.50;99.90
4433;DHT22;2229;48.708;9.706;2022-12-07T09:08:00;4.60;99.90
4433;DHT22;2229;48.708;9.706;2022-12-07T09:10:28;4.60;99.90
4433;DHT22;2229;48.708;9.706;2022-12-07T09:12:55;4.60;99.90
4433;DHT22;2229;48.708;9.706;2022-12-07T09:15:27;4.70;99.90
4433;DHT22;2229;48.708;9.706;2022-12-07T09:17:55;4.70;99.90
4433;DHT22;2229;48.708;9.706;2022-12-07T09:20:23;4.70;99.90
4433;DHT22;2229;48.708;9.706;2022-12-07T09:22:50;4.80;99.90
4433;DHT22;2229;48.708;9.706;2022-12-07T09:25:17;4.80;99.90
4433;DHT22;2229;48.708;9.706;2022-12-07T09:27:44;4.80;99.90
4433;DHT22;2229;48.708;9.706;2022-12-07T09:30:12;4.80;99.90
4433;DHT22;2229;48.708;9.706;2022-12-07T09:32:40;4.90;99.90
4433;DHT22;2229;48.708;9.706;2022-12-07T09:35:08;4.90;99.90
4433;DHT22;2229;48.708;9.706;2022-12-07T09:37:35;4.90;99.90
4433;DHT22;2229;48.708;9.706;2022-12-07T09:40:04;4.90;99.90
4433;DHT22;2229;48.708;9.706;2022-12-07T09:42:43;4.90;99.90
4433;DHT22;2229;48.708;9.706;2022-12-07T09:45:14;4.90;99.90
4433;DHT22;2229;48.708;9.706;2022-12-07T09:47:43;4.90;99.90
4433;DHT22;2229;48.708;9.706;2022-12-07T09:50:16;4.90;99.90
4433;DHT22;2229;48.708;9.706;2022-12-07T09:52:47;4.90;99.90
4433;DHT22;2229;48.708;9.706;2022-12-07T09:55:18;4.90;99.90
4433;DHT22;2229;48.708;9.706;2022-12-07T09:57:47;4.90;99.90
4433;DHT22;2229;48.708;9.706;2022-12-07T10:00:17;5.00;99.90
4433;DHT22;2229;48.708;9.706;2022-12-07T10:02:52;5.00;99.90
4433;DHT22;2229;48.708;9.706;2022-12-07T10:05:24;5.00;99.90
4433;DHT22;2229;48.708;9.706;2022-12-07T10:07:53;5.10;99.90
4433;DHT22;2229;48.708;9.706;2022-12-07T10:10:24;5.20;99.90
4433;DHT22;2229;48.708;9.706;2022-12-07T10:12:58;5.20;99.90
4433;DHT22;2229;48.708;9.706;2022-12-07T10:15:44;5.20;99.90
4433;DHT22;2229;48.708;9.706;2022-12-07T10:18:29;5.30;99.90
4433;DHT22;2229;48.708;9.706;2022-12-07T10:21:11;5.30;99.90
4433;DHT22;2229;48.708;9.706;2022-12-07T10:23:40;5.30;99.90
4433;DHT22;2229;48.708;9.706;2022-12-07T10:26:25;5.30;99.90
4433;DHT22;2229;48.708;9.706;2022-12-07T10:28:53;5.40;99.90
4433;DHT22;2229;48.708;9.706;2022-12-07T10:31:22;5.50;99.90
4433;DHT22;2229;48.708;9.706;2022-12-07T10:33:53;5.60;99.90
4433;DHT22;2229;48.708;9.706;2022-12-07T10:36:24;5.60;99.90
4433;DHT22;2229;48.708;9.706;2022-12-07T10:38:53;5.60;99.90
4433;DHT22;2229;48.708;9.706;2022-12-07T10:41:25;5.70;99.90
4433;DHT22;2229;48.708;9.706;2022-12-07T10:43:54;5.70;99.90
4433;DHT22;2229;48.708;9.706;2022-12-07T10:52:13;5.90;99.90
4433;DHT22;2229;48.708;9.706;2022-12-07T10:54:51;5.90;99.90
4433;DHT22;2229;48.708;9.706;2022-12-07T10:57:36;6.00;99.80
4433;DHT22;2229;48.708;9.706;2022-12-07T11:00:13;6.00;99.50
4433;DHT22;2229;48.708;9.706;2022-12-07T11:03:18;6.00;99.10
4433;DHT22;2229;48.708;9.706;2022-12-07T11:06:22;6.10;98.90
4433;DHT22;2229;48.708;9.706;2022-12-07T11:08:59;6.10;98.20
4433;DHT22;2229;48.708;9.706;2022-12-07T11:11:33;6.00;97.60
4433;DHT22;2229;48.708;9.706;2022-12-07T11:14:13;6.00;97.50
4433;DHT22;2229;48.708;9.706;2022-12-07T11:17:07;6.00;97.50
4433;DHT22;2229;48.708;9.706;2022-12-07T11:19:53;6.00;97.40
4433;DHT22;2229;48.708;9.706;2022-12-07T11:22:31;6.00;97.50
4433;DHT22;2229;48.708;9.706;2022-12-07T11:25:10;5.90;97.50
4433;DHT22;2229;48.708;9.706;2022-12-07T11:27:47;5.90;97.40
4433;DHT22;2229;48.708;9.706;2022-12-07T11:30:19;5.90;97.40
4433;DHT22;2229;48.708;9.706;2022-12-07T11:33:06;6.00;97.30
4433;DHT22;2229;48.708;9.706;2022-12-07T11:35:50;5.90;97.20
4433;DHT22;2229;48.708;9.706;2022-12-07T11:38:24;6.00;97.20
4433;DHT22;2229;48.708;9.706;2022-12-07T11:40:58;6.00;97.10
4433;DHT22;2229;48.708;9.706;2022-12-07T11:43:49;6.00;97.20
4433;DHT22;2229;48.708;9.706;2022-12-07T11:46:18;6.00;97.20
4433;DHT22;2229;48.708;9.706;2022-12-07T11:48:48;6.10;97.20
4433;DHT22;2229;48.708;9.706;2022-12-07T11:51:20;6.10;97.20
4433;DHT22;2229;48.708;9.706;2022-12-07T11:53:52;6.10;96.90
4433;DHT22;2229;48.708;9.706;2022-12-07T11:56:23;6.10;96.80
4433;DHT22;2229;48.708;9.706;2022-12-07T11:58:56;6.10;96.70
4433;DHT22;2229;48.708;9.706;2022-12-07T16:39:23;4.00;99.90
4433;DHT22;2229;48.708;9.706;2022-12-07T16:41:50;4.70;99.90
4433;DHT22;2229;48.708;9.706;2022-12-07T16:44:18;4.70;99.90
4433;DHT22;2229;48.708;9.706;2022-12-07T16:46:45;4.80;99.90
4433;DHT22;2229;48.708;9.706;2022-12-07T16:49:14;4.80;99.90
4433;DHT22;2229;48.708;9.706;2022-12-07T16:51:42;4.80;99.90
4433;DHT22;2229;48.708;9.706;2022-12-07T16:54:10;4.80;99.90
4433;DHT22;2229;48.708;9.706;2022-12-07T16:56:39;4.70;99.90
4433;DHT22;2229;48.708;9.706;2022-12-07T16:59:07;4.70;99.90
4433;DHT22;2229;48.708;9.706;2022-12-07T17:01:35;4.70;99.90
4433;DHT22;2229;48.708;9.706;2022-12-07T17:04:02;4.70;99.90
4433;DHT22;2229;48.708;9.706;2022-12-07T17:06:30;4.70;99.90
4433;DHT22;2229;48.708;9.706;2022-12-07T17:08:58;4.70;99.90
4433;DHT22;2229;48.708;9.706;2022-12-07T17:11:28;4.80;99.90
4433;DHT22;2229;48.708;9.706;2022-12-07T17:13:58;4.80;99.90
4433;DHT22;2229;48.708;9.706;2022-12-07T17:16:43;4.80;99.90
4433;DHT22;2229;48.708;9.706;2022-12-07T17:19:12;4.80;99.90
4433;DHT22;2229;48.708;9.706;2022-12-07T17:21:40;4.80;99.90
4433;DHT22;2229;48.708;9.706;2022-12-07T17:24:10;4.80;99.90
4433;DHT22;2229;48.708;9.706;2022-12-07T17:26:38;4.90;99.90
4433;DHT22;2229;48.708;9.706;2022-12-07T17:29:08;4.90;99.90
4433;DHT22;2229;48.708;9.706;2022-12-07T17:31:37;4.80;99.90
4433;DHT22;2229;48.708;9.706;2022-12-07T17:34:09;4.90;99.90
4433;DHT22;2229;48.708;9.706;2022-12-07T17:36:37;4.90;99.90
4433;DHT22;2229;48.708;9.706;2022-12-07T17:39:07;4.90;99.90
4433;DHT22;2229;48.708;9.706;2022-12-07T17:41:35;4.90;99.90
4433;DHT22;2229;48.708;9.706;2022-12-07T17:44:22;4.90;99.90
4433;DHT22;2229;48.708;9.706;2022-12-07T17:46:51;4.90;99.90
4433;DHT22;2229;48.708;9.706;2022-12-07T17:49:20;5.00;99.90
4433;DHT22;2229;48.708;9.706;2022-12-07T17:51:47;5.00;99.90
4433;DHT22;2229;48.708;9.706;2022-12-07T17:54:32;5.00;99.90
4433;DHT22;2229;48.708;9.706;2022-12-07T17:56:59;5.00;99.90
4433;DHT22;2229;48.708;9.706;2022-12-07T17:59:28;5.00;99.90
4433;DHT22;2229;48.708;9.706;2022-12-07T18:01:55;5.00;99.90
4433;DHT22;2229;48.708;9.706;2022-12-07T18:04:23;5.00;99.90
4433;DHT22;2229;48.708;9.706;2022-12-07T18:06:50;5.00;99.90
4433;DHT22;2229;48.708;9.706;2022-12-07T18:09:18;5.00;99.90
4433;DHT22;2229;48.708;9.706;2022-12-07T18:11:46;4.90;99.90
4433;DHT22;2229;48.708;9.706;2022-12-07T18:14:14;4.90;99.90
4433;DHT22;2229;48.708;9.706;2022-12-07T18:16:43;4.90;99.90
4433;DHT22;2229;48.708;9.706;2022-12-07T18:19:11;4.90;99.90
4433;DHT22;2229;48.708;9.706;2022-12-07T18:21:39;4.80;99.90
4433;DHT22;2229;48.708;9.706;2022-12-07T18:24:09;4.80;99.90
4433;DHT22;2229;48.708;9.706;2022-12-07T18:26:37;4.80;99.90
4433;DHT22;2229;48.708;9.706;2022-12-07T18:29:05;4.80;99.90
4433;DHT22;2229;48.708;9.706;2022-12-07T18:31:33;4.80;99.90
4433;DHT22;2229;48.708;9.706;2022-12-07T18:34:03;4.80;99.90
4433;DHT22;2229;48.708;9.706;2022-12-07T18:36:33;4.80;99.90
4433;DHT22;2229;48.708;9.706;2022-12-07T18:39:03;4.80;99.90
4433;DHT22;2229;48.708;9.706;2022-12-07T18:41:30;4.70;99.90
4433;DHT22;2229;48.708;9.706;2022-12-07T18:43:57;4.70;99.90
4433;DHT22;2229;48.708;9.706;2022-12-07T18:46:25;4.70;99.90
4433;DHT22;2229;48.708;9.706;2022-12-07T18:48:52;4.70;99.90
4433;DHT22;2229;48.708;9.706;2022-12-07T18:51:23;4.70;99.90
4433;DHT22;2229;48.708;9.706;2022-12-07T18:53:51;4.70;99.90
4433;DHT22;2229;48.708;9.706;2022-12-07T18:56:20;4.70;99.90
4433;DHT22;2229;48.708;9.706;2022-12-07T18:58:49;4.70;99.90
4433;DHT22;2229;48.708;9.706;2022-12-07T19:01:33;4.70;99.90
4433;DHT22;2229;48.708;9.706;2022-12-07T19:04:01;4.70;99.90
4433;DHT22;2229;48.708;9.706;2022-12-07T19:06:30;4.70;99.90
4433;DHT22;2229;48.708;9.706;2022-12-07T19:08:57;4.80;99.90
4433;DHT22;2229;48.708;9.706;2022-12-07T19:11:27;4.80;99.90
4433;DHT22;2229;48.708;9.706;2022-12-07T19:14:13;4.80;99.90
4433;DHT22;2229;48.708;9.706;2022-12-07T19:16:41;4.80;99.90
4433;DHT22;2229;48.708;9.706;2022-12-07T19:19:08;4.80;99.90
4433;DHT22;2229;48.708;9.706;2022-12-07T19:21:37;4.80;99.90
4433;DHT22;2229;48.708;9.706;2022-12-07T19:24:05;4.80;99.90
4433;DHT22;2229;48.708;9.706;2022-12-07T19:26:32;4.80;99.90
4433;DHT22;2229;48.708;9.706;2022-12-07T19:28:59;4.80;99.90
4433;DHT22;2229;48.708;9.706;2022-12-07T19:31:27;4.80;99.90
4433;DHT22;2229;48.708;9.706;2022-12-07T19:33:54;4.80;99.90
4433;DHT22;2229;48.708;9.706;2022-12-07T19:36:21;4.80;99.90
4433;DHT22;2229;48.708;9.706;2022-12-07T19:38:50;4.80;99.90
4433;DHT22;2229;48.708;9.706;2022-12-07T19:41:17;4.80;99.90
4433;DHT22;2229;48.708;9.706;2022-12-07T19:44:00;4.80;99.90
4433;DHT22;2229;48.708;9.706;2022-12-07T19:46:28;4.70;99.90
4433;DHT22;2229;48.708;9.706;2022-12-07T19:48:55;4.70;99.90
4433;DHT22;2229;48.708;9.706;2022-12-07T19:51:22;4.70;99.90
4433;DHT22;2229;48.708;9.706;2022-12-07T19:53:51;4.20;99.90
4433;DHT22;2229;48.708;9.706;2022-12-07T19:56:20;4.60;99.90
4433;DHT22;2229;48.708;9.706;2022-12-07T19:58:47;4.60;99.90
4433;DHT22;2229;48.708;9.706;2022-12-07T20:01:15;4.60;99.90
4433;DHT22;2229;48.708;9.706;2022-12-07T20:03:42;4.60;99.90
4433;DHT22;2229;48.708;9.706;2022-12-07T20:06:11;4.60;99.90
4433;DHT22;2229;48.708;9.706;2022-12-07T20:08:39;4.60;99.90
4433;DHT22;2229;48.708;9.706;2022-12-07T20:11:08;4.50;99.90
4433;DHT22;2229;48.708;9.706;2022-12-07T20:13:53;4.50;99.90
4433;DHT22;2229;48.708;9.706;2022-12-07T20:16:20;4.50;99.90
4433;DHT22;2229;48.708;9.706;2022-12-07T20:18:47;4.50;99.90
4433;DHT22;2229;48.708;9.706;2022-12-07T20:21:15;4.50;99.90
4433;DHT22;2229;48.708;9.706;2022-12-07T20:23:43;4.60;99.90
4433;DHT22;2229;48.708;9.706;2022-12-07T20:26:13;4.50;99.90
4433;DHT22;2229;48.708;9.706;2022-12-07T20:28:41;4.50;99.90
4433;DHT22;2229;48.708;9.706;2022-12-07T20:31:13;4.50;99.90
4433;DHT22;2229;48.708;9.706;2022-12-07T20:33:42;4.50;99.90
4433;DHT22;2229;48.708;9.706;2022-12-07T20:36:12;4.40;99.90
4433;DHT22;2229;48.708;9.706;2022-12-07T20:38:40;4.40;99.90
4433;DHT22;2229;48.708;9.706;2022-12-07T20:41:09;4.30;99.90
4433;DHT22;2229;48.708;9.706;2022-12-07T20:43:59;4.30;99.90
4433;DHT22;2229;48.708;9.706;2022-12-07T20:46:26;4.30;99.90
4433;DHT22;2229;48.708;9.706;2022-12-07T20:48:56;4.20;99.90
4433;DHT22;2229;48.708;9.706;2022-12-07T20:51:23;4.20;99.90
4433;DHT22;2229;48.708;9.706;2022-12-07T20:53:50;4.20;99.90
4433;DHT22;2229;48.708;9.706;2022-12-07T20:56:19;4.20;99.90
4433;DHT22;2229;48.708;9.706;2022-12-07T20:58:46;4.20;99.90
4433;DHT22;2229;48.708;9.706;2022-12-07T21:01:15;4.20;99.90
4433;DHT22;2229;48.708;9.706;2022-12-07T21:03:43;4.30;99.90
4433;DHT22;2229;48.708;9.706;2022-12-07T21:06:12;4.20;99.90
4433;DHT22;2229;48.708;9.706;2022-12-07T21:08:44;4.20;99.90
4433;DHT22;2229;48.708;9.706;2022-12-07T21:11:12;4.20;99.90
4433;DHT22;2229;48.708;9.706;2022-12-07T21:13:40;4.20;99.90
4433;DHT22;2229;48.708;9.706;2022-12-07T21:16:09;4.20;99.90
4433;DHT22;2229;48.708;9.706;2022-12-07T21:18:38;4.10;99.90
4433;DHT22;2229;48.708;9.706;2022-12-07T21:21:07;4.10;99.90
4433;DHT22;2229;48.708;9.706;2022-12-07T21:23:38;4.10;99.90
4433;DHT22;2229;48.708;9.706;2022-12-07T21:26:09;4.10;99.90
4433;DHT22;2229;48.708;9.706;2022-12-07T21:28:36;4.10;99.90